Time;durP1;ratioP1;P1;durP2;ratioP2;P2;SDS_P1;SDS_P2;PMS_P1;PMS_P2;Temp;Humidity;BMP_temperature;BMP_pressure;BME280_temperature;BME280_humidity;BME280_pressure;Samples;Min_cycle;Max_cycle;Signal;HPM_P1;HPM_P2
2022/07/15 00:02:23;;;;;;;3.30;3.00;;;20.00;78.80;;;;;;4997446;28;20311;-95
2022/07/15 00:04:48;;;;;;;6.83;3.30;;;20.00;77.50;;;;;;5011283;28;20466;-96
2022/07/15 00:07:14;;;;;;;4.07;3.30;;;20.30;78.00;;;;;;4995933;28;20192;-96
2022/07/15 00:12:24;;;;;;;3.93;3.13;;;20.10;80.10;;;;;;5008090;28;20195;-95
2022/07/15 00:14:49;;;;;;;8.03;3.17;;;19.80;79.40;;;;;;4994526;28;20435;-95
2022/07/15 00:17:15;;;;;;;3.97;3.10;;;19.70;78.60;;;;;;4994033;28;21468;-95
2022/07/15 00:19:41;;;;;;;3.50;2.73;;;19.70;79.00;;;;;;4992623;28;20188;-96
2022/07/15 00:22:06;;;;;;;3.37;3.17;;;19.70;79.00;;;;;;4994847;28;20212;-94
2022/07/15 00:24:32;;;;;;;3.37;3.07;;;19.50;79.70;;;;;;4991931;28;20190;-96
2022/07/15 00:26:58;;;;;;;5.87;3.47;;;19.40;79.90;;;;;;4998692;28;21030;-96
2022/07/15 00:29:25;;;;;;;3.57;3.27;;;19.70;79.80;;;;;;5000560;28;20180;-96
2022/07/15 00:31:51;;;;;;;4.00;3.70;;;19.40;79.60;;;;;;4995258;28;20280;-96
2022/07/15 00:34:16;;;;;;;4.50;3.37;;;19.30;78.90;;;;;;4997173;28;20522;-94
2022/07/15 00:36:42;;;;;;;6.03;3.23;;;19.30;80.70;;;;;;5030490;28;20413;-95
2022/07/15 00:39:09;;;;;;;3.77;3.33;;;19.40;80.20;;;;;;4990490;28;20303;-95
2022/07/15 00:41:38;;;;;;;3.40;2.77;;;19.40;80.00;;;;;;5008685;28;20210;-96
2022/07/15 00:44:04;;;;;;;3.77;3.47;;;19.60;80.50;;;;;;4997972;28;20489;-96
2022/07/15 00:46:31;;;;;;;3.67;3.37;;;19.60;80.00;;;;;;4992898;28;21140;-95
2022/07/15 00:48:58;;;;;;;3.40;3.10;;;19.50;80.00;;;;;;4993879;28;20431;-96
2022/07/15 00:51:24;;;;;;;4.13;3.20;;;19.30;80.40;;;;;;5000264;28;20462;-95
2022/07/15 00:53:52;;;;;;;3.23;2.90;;;19.50;81.10;;;;;;4997037;28;20435;-95
2022/07/15 00:56:21;;;;;;;4.50;3.40;;;19.20;80.20;;;;;;4991911;28;20180;-96
2022/07/15 00:58:51;;;;;;;3.70;3.33;;;19.20;80.60;;;;;;5024567;28;20557;-96
2022/07/15 01:01:19;;;;;;;3.67;3.37;;;19.20;81.90;;;;;;4996460;28;20471;-95
2022/07/15 01:03:48;;;;;;;3.13;2.60;;;19.10;83.80;;;;;;4994081;28;21608;-96
2022/07/15 01:06:14;;;;;;;3.60;3.30;;;18.90;84.60;;;;;;5005107;28;20435;-96
2022/07/15 01:08:39;;;;;;;5.97;3.10;;;18.90;85.80;;;;;;4987685;28;20554;-93
2022/07/15 01:11:05;;;;;;;4.40;3.10;;;18.70;85.00;;;;;;4994260;28;20180;-93
2022/07/15 01:13:31;;;;;;;3.43;3.13;;;18.70;87.30;;;;;;5018944;28;20314;-96
2022/07/15 01:15:57;;;;;;;3.37;3.07;;;18.60;87.00;;;;;;5015028;28;20482;-95
2022/07/15 01:18:22;;;;;;;5.10;2.77;;;18.50;86.10;;;;;;4997292;28;20475;-93
2022/07/15 01:20:48;;;;;;;3.80;2.83;;;18.50;85.80;;;;;;5014658;28;20204;-94
2022/07/15 01:23:15;;;;;;;2.83;2.60;;;18.70;87.60;;;;;;4994299;28;20634;-94
2022/07/15 01:25:41;;;;;;;3.80;3.40;;;18.80;88.60;;;;;;4988981;28;20195;-94
2022/07/15 01:28:08;;;;;;;3.70;3.23;;;18.30;88.30;;;;;;5012996;28;20805;-95
2022/07/15 01:47:26;;;;;;;3.83;3.43;;;17.80;90.80;;;;;;5031442;28;20461;-96
2022/07/15 01:49:51;;;;;;;3.43;3.10;;;17.70;91.30;;;;;;5062687;28;20438;-95
2022/07/15 01:52:17;;;;;;;3.40;3.17;;;17.60;91.50;;;;;;5020266;28;20952;-94
2022/07/15 01:54:43;;;;;;;5.40;4.50;;;17.50;91.80;;;;;;5027568;28;21155;-94
2022/07/15 01:57:08;;;;;;;3.50;3.20;;;17.50;92.10;;;;;;5026072;28;20187;-94
2022/07/15 01:59:34;;;;;;;3.20;3.00;;;17.40;92.60;;;;;;5021089;28;20931;-92
2022/07/15 02:02:12;;;;;;;4.17;3.30;;;17.40;93.30;;;;;;5004667;28;20236;-95
2022/07/15 02:04:37;;;;;;;3.97;3.40;;;17.30;93.00;;;;;;5006917;28;20334;-95
2022/07/15 02:07:04;;;;;;;4.90;3.50;;;17.50;93.60;;;;;;5020576;28;20478;-95
2022/07/15 02:09:29;;;;;;;3.93;3.47;;;17.50;94.20;;;;;;5021511;28;20196;-95
2022/07/15 02:11:55;;;;;;;3.77;3.37;;;17.40;94.00;;;;;;5017948;28;21060;-95
2022/07/15 02:14:23;;;;;;;3.60;3.30;;;17.20;94.40;;;;;;5016398;28;20608;-95
2022/07/15 02:16:51;;;;;;;3.20;3.00;;;17.20;94.50;;;;;;5035208;28;20259;-93
2022/07/15 02:19:32;;;;;;;3.60;3.23;;;17.10;94.90;;;;;;5031522;28;20443;-94
2022/07/15 02:21:58;;;;;;;3.17;2.87;;;17.10;95.00;;;;;;5026794;28;20595;-94
2022/07/15 02:24:23;;;;;;;4.13;3.40;;;17.00;94.40;;;;;;5007172;28;20478;-94
2022/07/15 02:26:49;;;;;;;6.00;3.50;;;17.00;94.90;;;;;;5008765;28;20314;-95
2022/07/15 02:29:16;;;;;;;3.20;3.00;;;16.90;95.90;;;;;;5006885;28;20180;-94
2022/07/15 02:31:42;;;;;;;3.30;3.00;;;16.60;96.00;;;;;;5027211;28;20197;-94
2022/07/15 02:34:08;;;;;;;2.90;2.70;;;16.60;96.10;;;;;;5004858;28;21028;-95
2022/07/15 02:36:35;;;;;;;4.30;3.50;;;16.40;96.90;;;;;;5010134;28;20275;-94
2022/07/15 02:39:02;;;;;;;3.97;3.33;;;16.40;97.50;;;;;;5010918;28;20450;-95
2022/07/15 02:41:30;;;;;;;3.57;3.23;;;16.50;96.90;;;;;;5006447;28;20550;-94
2022/07/15 02:43:56;;;;;;;3.87;3.57;;;16.60;97.80;;;;;;5002062;28;20447;-93
2022/07/15 02:46:22;;;;;;;3.90;3.10;;;16.40;97.90;;;;;;5037561;28;20568;-93
2022/07/15 02:48:47;;;;;;;3.30;3.10;;;16.40;98.30;;;;;;4997220;28;20200;-93
2022/07/15 02:51:14;;;;;;;3.27;2.90;;;16.40;98.10;;;;;;5003029;28;20470;-95
2022/07/15 02:53:39;;;;;;;3.10;2.90;;;16.30;98.20;;;;;;5010836;28;20247;-95
2022/07/15 02:56:06;;;;;;;3.80;3.10;;;16.20;98.40;;;;;;5011376;28;20551;-94
2022/07/15 02:58:32;;;;;;;3.00;2.80;;;16.20;98.40;;;;;;5008129;28;20181;-93
2022/07/15 03:01:33;;;;;;;2.97;2.77;;;16.10;99.00;;;;;;5021108;28;20755;-94
2022/07/15 03:04:07;;;;;;;2.93;2.73;;;16.10;98.70;;;;;;4990608;28;20780;-93
2022/07/15 03:06:46;;;;;;;3.13;2.93;;;16.20;98.90;;;;;;5005249;28;20451;-93
2022/07/15 03:09:12;;;;;;;3.70;3.40;;;16.10;99.00;;;;;;5008927;28;20214;-94
2022/07/15 03:11:39;;;;;;;3.20;3.00;;;16.00;99.30;;;;;;5017848;28;20423;-95
2022/07/15 03:14:09;;;;;;;3.40;3.10;;;15.90;99.60;;;;;;5023456;28;20168;-93
2022/07/15 03:16:53;;;;;;;3.97;3.10;;;15.90;99.90;;;;;;5024943;28;20446;-93
2022/07/15 03:19:20;;;;;;;3.47;3.27;;;15.90;99.90;;;;;;5012638;28;20450;-94
2022/07/15 03:21:46;;;;;;;3.67;3.37;;;16.10;99.90;;;;;;5008354;28;20494;-95
2022/07/15 03:24:13;;;;;;;3.23;2.93;;;15.70;99.90;;;;;;5011653;28;20450;-93
2022/07/15 03:26:38;;;;;;;3.37;3.07;;;15.90;99.90;;;;;;5012516;28;20195;-94
2022/07/15 03:29:07;;;;;;;3.70;3.40;;;15.60;99.90;;;;;;5008113;28;20435;-96
2022/07/15 03:31:33;;;;;;;3.57;3.20;;;15.70;99.90;;;;;;4993577;28;20203;-95
2022/07/15 03:34:14;;;;;;;4.23;3.37;;;15.60;99.90;;;;;;5007543;28;20509;-93
2022/07/15 03:36:40;;;;;;;4.13;3.90;;;15.60;99.90;;;;;;5040961;28;20526;-93
2022/07/15 03:39:07;;;;;;;3.80;3.40;;;15.40;99.90;;;;;;5005664;28;20952;-94
2022/07/15 03:41:33;;;;;;;3.07;2.87;;;15.10;99.90;;;;;;5012883;28;21005;-94
2022/07/15 03:43:59;;;;;;;3.50;3.23;;;15.40;99.90;;;;;;5007621;28;20438;-94
2022/07/15 03:46:25;;;;;;;3.90;3.60;;;15.40;99.90;;;;;;5000524;28;21171;-94
2022/07/15 03:48:51;;;;;;;2.73;2.53;;;15.40;99.90;;;;;;4988135;28;20534;-94
2022/07/15 03:51:17;;;;;;;4.17;2.73;;;15.30;99.90;;;;;;5026365;28;20443;-93
2022/07/15 03:53:43;;;;;;;3.37;3.07;;;15.20;99.90;;;;;;5006585;28;20192;-93
2022/07/15 03:56:09;;;;;;;3.17;2.97;;;15.40;99.90;;;;;;5002351;28;20270;-94
2022/07/15 03:59:09;;;;;;;3.00;2.80;;;15.50;99.90;;;;;;5023730;28;20199;-96
2022/07/15 04:01:48;;;;;;;4.13;3.17;;;15.50;99.90;;;;;;5010521;28;20233;-94
2022/07/15 04:04:25;;;;;;;3.93;3.30;;;15.50;99.90;;;;;;5008115;28;21028;-95
2022/07/15 04:06:51;;;;;;;3.43;2.60;;;15.50;99.90;;;;;;5014397;28;20476;-93
2022/07/15 04:09:16;;;;;;;4.57;3.67;;;15.30;99.90;;;;;;5008326;28;21014;-94
2022/07/15 04:11:42;;;;;;;3.30;3.00;;;15.40;99.90;;;;;;5047079;28;20188;-94
2022/07/15 04:14:11;;;;;;;3.07;2.77;;;15.70;99.90;;;;;;5012006;28;20184;-94
2022/07/15 04:16:36;;;;;;;4.57;3.27;;;15.50;99.90;;;;;;5006681;28;20215;-95
2022/07/15 04:19:05;;;;;;;3.50;2.90;;;15.60;99.90;;;;;;5008397;28;20439;-95
2022/07/15 04:21:39;;;;;;;5.03;3.33;;;15.60;99.90;;;;;;5027916;28;20216;-95
2022/07/15 04:24:05;;;;;;;4.23;3.57;;;15.50;99.90;;;;;;5013595;28;20431;-96
2022/07/15 04:26:31;;;;;;;3.40;3.20;;;15.30;99.90;;;;;;5022114;28;20649;-96
2022/07/15 04:28:57;;;;;;;3.57;3.27;;;15.20;99.90;;;;;;5031628;28;20187;-96
2022/07/15 04:31:23;;;;;;;3.73;3.30;;;15.50;99.90;;;;;;5032413;28;20443;-96
2022/07/15 04:33:48;;;;;;;4.10;3.80;;;15.50;99.90;;;;;;5008501;28;20487;-96
2022/07/15 04:36:14;;;;;;;6.43;3.40;;;15.50;99.90;;;;;;5017334;28;20180;-96
2022/07/15 04:38:39;;;;;;;3.50;3.20;;;15.60;99.90;;;;;;5017003;28;20192;-96
2022/07/15 04:41:05;;;;;;;3.53;3.23;;;15.70;99.90;;;;;;5020363;28;20232;-96
2022/07/15 04:43:31;;;;;;;4.00;3.70;;;15.70;99.90;;;;;;5017506;28;20188;-96
2022/07/15 04:45:56;;;;;;;5.33;3.87;;;15.70;99.90;;;;;;5020078;28;20177;-96
2022/07/15 04:51:06;;;;;;;2.80;2.60;;;15.80;99.90;;;;;;5036859;28;20204;-96
2022/07/15 04:53:32;;;;;;;4.30;3.40;;;15.80;99.90;;;;;;5021429;28;20447;-95
2022/07/15 04:56:03;;;;;;;4.90;3.40;;;15.70;99.90;;;;;;5014123;28;20529;-96
2022/07/15 04:58:35;;;;;;;3.80;3.47;;;15.80;99.90;;;;;;5013044;28;20198;-96
2022/07/15 05:01:00;;;;;;;4.00;3.70;;;16.00;99.90;;;;;;5013860;28;20558;-95
2022/07/15 05:03:26;;;;;;;5.27;4.23;;;16.00;99.90;;;;;;5004869;28;21039;-95
2022/07/15 05:05:55;;;;;;;3.77;3.47;;;16.10;99.90;;;;;;4989728;28;20284;-95
2022/07/15 05:08:21;;;;;;;6.17;3.70;;;16.10;99.90;;;;;;5005377;28;20196;-95
2022/07/15 05:10:46;;;;;;;4.00;3.60;;;16.30;99.90;;;;;;5019188;28;20440;-96
2022/07/15 05:13:12;;;;;;;3.90;3.60;;;16.50;99.90;;;;;;5048560;28;20200;-95
2022/07/15 05:15:44;;;;;;;4.40;4.00;;;16.40;99.90;;;;;;5025619;28;20215;-96
2022/07/15 05:18:20;;;;;;;4.23;3.83;;;16.50;99.90;;;;;;5022231;28;20319;-96
2022/07/15 05:20:45;;;;;;;5.40;3.80;;;16.60;99.90;;;;;;5018811;28;20490;-96
2022/07/15 05:23:11;;;;;;;3.40;3.10;;;16.70;99.90;;;;;;5028124;28;20251;-96
2022/07/15 05:25:39;;;;;;;3.73;3.43;;;16.70;99.90;;;;;;5027189;28;20184;-96
2022/07/15 05:28:22;;;;;;;;;;;;;;;;;;;;;
2022/07/15 05:31:03;;;;;;;5.00;3.77;;;17.70;99.90;;;;;;5052683;28;20450;-96
2022/07/15 05:33:29;;;;;;;7.40;4.37;;;17.70;99.90;;;;;;5033967;28;20439;-95
2022/07/15 05:35:55;;;;;;;9.93;4.60;;;18.20;99.90;;;;;;5024353;28;20434;-96
2022/07/15 05:38:23;;;;;;;5.60;4.50;;;18.80;99.90;;;;;;5015326;28;20936;-96
2022/07/15 05:40:49;;;;;;;6.67;4.70;;;17.90;99.90;;;;;;5020677;28;20284;-95
2022/07/15 05:43:15;;;;;;;4.13;3.83;;;17.70;99.90;;;;;;5019604;28;20485;-96
2022/07/15 05:45:58;;;;;;;;;;;;;;;;;;;;;
2022/07/15 05:48:35;;;;;;;4.90;4.50;;;17.80;99.90;;;;;;5043709;28;20670;-91
2022/07/15 05:51:22;;;;;;;4.57;4.17;;;17.10;99.50;;;;;;5024004;28;20442;-95
2022/07/15 05:53:48;;;;;;;4.33;3.93;;;17.60;99.90;;;;;;5009186;28;20453;-94
2022/07/15 05:56:16;;;;;;;5.07;4.53;;;17.60;99.90;;;;;;5001673;28;20426;-91
2022/07/15 05:58:48;;;;;;;6.23;5.27;;;17.40;99.90;;;;;;4999091;28;20454;-92
2022/07/15 06:01:13;;;;;;;6.37;4.40;;;17.50;99.90;;;;;;5001328;28;20562;-92
2022/07/15 06:03:42;;;;;;;5.10;4.40;;;17.50;99.90;;;;;;5005614;28;20534;-94
2022/07/15 06:06:16;;;;;;;5.17;4.70;;;17.50;99.90;;;;;;5014535;28;20176;-91
2022/07/15 06:08:42;;;;;;;5.50;4.80;;;18.00;99.90;;;;;;5009315;28;20490;-92
2022/07/15 06:11:08;;;;;;;4.77;4.37;;;17.60;99.90;;;;;;5004256;28;20652;-92
2022/07/15 06:13:34;;;;;;;6.30;4.63;;;17.90;99.90;;;;;;5009933;28;20184;-94
2022/07/15 06:15:59;;;;;;;5.73;4.30;;;18.10;99.80;;;;;;5004567;28;20438;-92
2022/07/15 06:18:25;;;;;;;4.37;3.97;;;18.50;99.60;;;;;;5005420;28;20196;-92
2022/07/15 06:20:51;;;;;;;4.70;3.90;;;18.20;99.00;;;;;;5002683;28;20472;-93
2022/07/15 06:23:17;;;;;;;5.80;3.70;;;18.60;98.30;;;;;;5004063;28;20189;-94
2022/07/15 06:25:42;;;;;;;5.50;3.63;;;18.50;98.60;;;;;;5018143;28;20584;-92
2022/07/15 06:28:16;;;;;;;4.47;3.60;;;18.50;96.70;;;;;;5016645;28;20279;-90
2022/07/15 06:30:41;;;;;;;4.00;3.60;;;18.40;96.80;;;;;;5004854;28;20208;-91
2022/07/15 06:33:07;;;;;;;4.10;3.47;;;18.60;96.70;;;;;;5015349;28;20447;-92
2022/07/15 06:35:32;;;;;;;3.80;3.37;;;18.70;98.10;;;;;;5000749;28;20188;-92
2022/07/15 06:38:01;;;;;;;4.20;3.67;;;18.60;96.40;;;;;;5004695;28;20255;-92
2022/07/15 06:40:26;;;;;;;4.00;3.30;;;18.40;97.20;;;;;;4995674;28;20451;-91
2022/07/15 06:43:05;;;;;;;6.93;3.47;;;18.70;98.60;;;;;;4990346;28;20199;-92
2022/07/15 06:45:30;;;;;;;6.40;2.90;;;19.00;97.70;;;;;;4992453;28;20188;-92
2022/07/15 06:47:56;;;;;;;3.23;2.80;;;19.20;97.00;;;;;;4995702;28;21264;-94
2022/07/15 06:50:24;;;;;;;4.67;2.40;;;19.30;96.60;;;;;;4992242;28;20189;-91
2022/07/15 06:52:49;;;;;;;2.87;2.47;;;19.50;95.00;;;;;;4988079;28;20974;-90
2022/07/15 06:55:15;;;;;;;4.37;3.00;;;19.50;95.30;;;;;;5005338;28;20461;-91
2022/07/15 06:58:07;;;;;;;193.10;176.47;;;19.90;94.90;;;;;;5015719;28;20184;-96
2022/07/15 07:00:55;;;;;;;5.83;3.17;;;19.80;92.70;;;;;;4947863;28;20243;-96
2022/07/15 07:04:10;;;;;;;;;;;;;;;;;;;;;
2022/07/15 07:08:05;;;;;;;;;;;;;;;;;;;;;
2022/07/15 07:11:07;;;;;;;;;;;;;;;;;;;;;
2022/07/15 07:14:15;;;;;;;5.63;2.40;;;20.60;91.40;;;;;;4936926;29;20810;-96
2022/07/15 07:16:52;;;;;;;4.60;2.60;;;20.40;91.30;;;;;;4913429;29;20989;-93
2022/07/15 07:19:27;;;;;;;4.53;2.60;;;21.10;91.60;;;;;;4994438;28;20447;-94
2022/07/15 07:22:06;;;;;;;;;;;;;;;;;;;;;
2022/07/15 07:27:38;;;;;;;3.90;2.37;;;21.10;90.50;;;;;;5014182;28;20450;-96
2022/07/15 07:30:07;;;;;;;4.20;2.27;;;21.00;90.50;;;;;;5008887;28;20439;-96
2022/07/15 07:32:35;;;;;;;6.00;2.40;;;21.20;88.90;;;;;;5013146;28;20505;-94
2022/07/15 07:35:30;;;;;;;2.40;2.00;;;21.10;91.00;;;;;;4998925;28;20447;-93
2022/07/15 07:38:54;;;;;;;;;;;;;;;;;;;;;
2022/07/15 07:51:12;;;;;;;5.83;2.90;;;21.50;85.40;;;;;;4999912;28;20489;-93
2022/07/15 07:53:46;;;;;;;7.90;2.40;;;21.60;83.70;;;;;;4966265;28;20909;-93
2022/07/15 07:56:45;;;;;;;;;;;;;;;;;;;;;
2022/07/15 07:59:16;;;;;;;4.63;2.23;;;22.00;86.60;;;;;;5015344;28;20450;-93
2022/07/15 08:01:57;;;;;;;;;;;;;;;;;;;;;
2022/07/15 08:04:23;;;;;;;2.33;2.13;;;21.30;84.50;;;;;;5015654;28;20443;-92
2022/07/15 08:06:48;;;;;;;3.20;2.90;;;22.30;83.10;;;;;;5008856;28;20473;-91
2022/07/15 08:09:14;;;;;;;2.37;2.00;;;22.00;81.30;;;;;;5009202;28;20202;-91
2022/07/15 08:11:40;;;;;;;4.80;2.70;;;22.00;80.00;;;;;;5020073;28;20212;-89
2022/07/15 08:14:06;;;;;;;2.37;2.17;;;22.10;78.70;;;;;;5014622;28;20865;-89
2022/07/15 08:16:33;;;;;;;2.70;2.03;;;22.20;76.40;;;;;;5009944;28;20328;-88
2022/07/15 08:18:59;;;;;;;4.17;2.43;;;22.00;73.00;;;;;;5016491;28;20267;-88
2022/07/15 08:21:24;;;;;;;2.33;2.13;;;21.80;74.40;;;;;;5015962;28;20864;-88
2022/07/15 08:23:50;;;;;;;3.27;2.10;;;22.10;75.30;;;;;;5017532;28;20172;-87
2022/07/15 08:26:22;;;;;;;5.23;2.27;;;22.10;74.00;;;;;;5020022;28;20299;-90
2022/07/15 08:28:49;;;;;;;2.80;2.23;;;22.30;71.60;;;;;;5020079;28;20924;-90
2022/07/15 08:31:15;;;;;;;2.97;2.10;;;22.50;72.20;;;;;;5000002;28;20448;-89
2022/07/15 08:33:40;;;;;;;3.20;2.20;;;22.50;72.40;;;;;;5019729;28;21233;-91
2022/07/15 08:36:06;;;;;;;4.50;2.33;;;22.60;73.00;;;;;;4995545;28;20176;-90
2022/07/15 08:38:32;;;;;;;3.23;2.20;;;22.60;70.60;;;;;;5022031;28;20183;-93
2022/07/15 08:40:58;;;;;;;2.90;2.27;;;22.60;70.40;;;;;;5001042;28;20212;-88
2022/07/15 08:43:23;;;;;;;2.70;2.47;;;23.10;65.30;;;;;;5010711;28;20187;-87
2022/07/15 08:45:49;;;;;;;2.57;2.37;;;22.80;68.50;;;;;;5007790;28;20469;-89
2022/07/15 08:48:17;;;;;;;3.37;2.17;;;23.00;65.60;;;;;;5019007;28;20472;-86
2022/07/15 08:50:43;;;;;;;5.40;2.70;;;23.10;71.20;;;;;;5008898;28;20188;-89
2022/07/15 08:53:09;;;;;;;2.10;1.90;;;23.40;71.50;;;;;;5018015;28;20439;-87
2022/07/15 08:55:34;;;;;;;2.33;2.13;;;23.40;70.90;;;;;;4997506;28;20945;-86
2022/07/15 08:58:00;;;;;;;2.13;1.97;;;23.40;67.90;;;;;;5006829;28;20271;-86
2022/07/15 09:00:30;;;;;;;3.40;2.10;;;23.10;66.00;;;;;;4995633;28;20522;-91
2022/07/15 09:03:01;;;;;;;3.57;2.43;;;23.40;67.90;;;;;;4992315;28;20230;-88
2022/07/15 09:05:30;;;;;;;2.87;1.90;;;23.30;66.30;;;;;;5004806;28;20781;-89
2022/07/15 09:08:16;;;;;;;4.47;2.80;;;23.40;67.30;;;;;;5000573;28;20475;-88
2022/07/15 09:11:00;;;;;;;4.77;2.37;;;23.60;67.30;;;;;;4993752;28;20454;-88
2022/07/15 09:13:35;;;;;;;4.73;2.33;;;23.70;71.00;;;;;;5001560;28;20963;-88
2022/07/15 09:16:08;;;;;;;7.37;2.27;;;23.70;67.10;;;;;;4986818;28;20932;-89
2022/07/15 09:18:45;;;;;;;2.40;2.20;;;23.70;68.70;;;;;;4997556;28;20471;-90
2022/07/15 09:21:18;;;;;;;2.80;2.37;;;24.10;66.60;;;;;;4994444;28;20592;-90
2022/07/15 09:23:47;;;;;;;4.87;2.20;;;23.70;68.00;;;;;;4997469;28;20449;-90
2022/07/15 09:26:37;;;;;;;3.67;2.23;;;23.80;67.80;;;;;;4964911;28;20435;-90
2022/07/15 09:37:59;;;;;;;3.17;2.30;;;23.70;70.20;;;;;;4995987;28;20496;-89
2022/07/15 09:40:25;;;;;;;4.17;2.40;;;24.00;70.50;;;;;;4994437;28;20520;-90
2022/07/15 09:43:06;;;;;;;2.60;2.40;;;23.90;69.50;;;;;;4998485;28;20965;-91
2022/07/15 09:45:35;;;;;;;2.60;2.40;;;24.40;66.10;;;;;;4997301;28;20673;-91
2022/07/15 09:48:14;;;;;;;3.23;2.30;;;24.30;61.40;;;;;;4992326;28;20450;-90
2022/07/15 09:50:40;;;;;;;3.33;2.27;;;23.90;61.60;;;;;;5000875;28;20469;-92
2022/07/15 09:53:14;;;;;;;2.73;2.50;;;23.90;69.80;;;;;;5004978;28;20436;-91
2022/07/15 09:55:42;;;;;;;3.63;2.80;;;24.20;69.70;;;;;;5005438;28;20188;-92
2022/07/15 09:58:09;;;;;;;5.73;2.43;;;24.20;64.10;;;;;;5001031;28;20822;-91
2022/07/15 10:01:03;;;;;;;2.70;2.50;;;23.60;63.50;;;;;;4999772;28;20714;-95
2022/07/15 10:03:28;;;;;;;3.30;2.70;;;23.50;66.70;;;;;;5010105;28;20529;-94
2022/07/15 10:05:54;;;;;;;2.60;2.37;;;23.40;65.10;;;;;;5008635;28;21007;-92
2022/07/15 10:08:21;;;;;;;2.67;2.47;;;23.80;68.30;;;;;;5029487;28;20838;-93
2022/07/15 10:10:49;;;;;;;5.23;2.63;;;24.20;67.60;;;;;;5005923;28;20188;-92
2022/07/15 10:13:34;;;;;;;4.13;2.90;;;24.30;66.60;;;;;;5012002;28;20990;-92
2022/07/15 10:16:08;;;;;;;3.17;2.87;;;24.30;62.80;;;;;;5004873;28;20438;-92
2022/07/15 10:19:03;;;;;;;4.67;3.30;;;24.20;70.50;;;;;;5002763;28;20500;-94
2022/07/15 10:22:00;;;;;;;7.20;3.27;;;24.70;69.60;;;;;;5021117;28;20529;-92
2022/07/15 10:24:43;;;;;;;4.63;2.80;;;24.60;64.70;;;;;;5011122;28;20538;-93
2022/07/15 10:27:47;;;;;;;5.20;2.83;;;24.80;68.00;;;;;;5022263;28;20449;-91
2022/07/15 10:30:19;;;;;;;4.20;2.90;;;25.30;68.90;;;;;;5027552;28;20626;-91
2022/07/15 10:33:03;;;;;;;3.90;3.37;;;25.50;67.40;;;;;;4988866;28;20438;-91
2022/07/15 10:35:38;;;;;;;3.50;3.20;;;25.60;66.30;;;;;;5019182;28;20442;-92
2022/07/15 10:38:23;;;;;;;4.27;3.30;;;25.70;64.10;;;;;;5040449;28;20778;-89
2022/07/15 10:41:12;;;;;;;4.10;3.47;;;25.60;63.70;;;;;;5000322;28;20426;-89
2022/07/15 10:43:45;;;;;;;4.10;3.40;;;25.40;61.60;;;;;;5000067;28;20863;-90
2022/07/15 10:46:16;;;;;;;3.40;3.00;;;24.60;60.30;;;;;;4996771;28;20439;-89
2022/07/15 10:48:47;;;;;;;3.30;3.00;;;24.60;62.00;;;;;;5003844;28;20449;-91
2022/07/15 10:51:33;;;;;;;3.63;3.37;;;24.80;62.90;;;;;;5006864;28;20438;-91
2022/07/15 10:53:59;;;;;;;3.93;3.20;;;25.20;63.90;;;;;;5009038;28;21103;-96
2022/07/15 10:56:45;;;;;;;3.73;3.23;;;25.00;61.20;;;;;;5009005;28;20910;-94
2022/07/15 10:59:26;;;;;;;4.17;3.07;;;25.00;66.00;;;;;;5014036;28;20441;-93
2022/07/15 11:02:01;;;;;;;4.93;3.63;;;24.60;62.90;;;;;;5015003;28;20532;-95
2022/07/15 11:04:29;;;;;;;5.00;3.63;;;25.00;64.30;;;;;;5031603;28;20489;-94
2022/07/15 11:10:14;;;;;;;5.47;3.90;;;25.00;62.40;;;;;;5006425;28;20466;-94
2022/07/15 11:12:51;;;;;;;5.30;3.43;;;25.20;63.90;;;;;;4984474;28;20447;-94
2022/07/15 11:15:44;;;;;;;5.73;3.67;;;25.80;66.70;;;;;;5001158;28;20435;-95
2022/07/15 11:18:09;;;;;;;3.53;3.33;;;26.30;60.50;;;;;;5008063;28;20440;-93
2022/07/15 11:20:38;;;;;;;3.87;3.50;;;26.30;59.00;;;;;;4981939;28;21031;-91
2022/07/15 11:23:06;;;;;;;3.90;3.50;;;24.80;58.30;;;;;;5008651;28;20598;-91
2022/07/15 11:25:35;;;;;;;3.60;3.30;;;24.80;60.10;;;;;;4984763;28;20485;-91
2022/07/15 11:28:13;;;;;;;3.67;3.37;;;24.70;59.40;;;;;;4982149;28;20444;-91
2022/07/15 11:30:53;;;;;;;3.40;3.10;;;25.20;59.10;;;;;;4986557;28;20455;-89
2022/07/15 11:33:21;;;;;;;3.73;3.30;;;25.50;61.10;;;;;;5017852;28;20454;-93
2022/07/15 11:35:53;;;;;;;6.53;5.97;;;26.00;61.70;;;;;;5010191;28;20436;-94
2022/07/15 11:38:23;;;;;;;16.13;14.80;;;26.50;63.90;;;;;;5020807;28;20413;-96
2022/07/15 11:46:22;;;;;;;3.70;3.40;;;27.50;58.70;;;;;;5003880;28;21227;-91
2022/07/15 11:48:49;;;;;;;4.60;3.40;;;27.90;63.10;;;;;;4976937;28;20443;-91
2022/07/15 11:51:14;;;;;;;6.17;3.50;;;27.30;55.90;;;;;;4988818;28;21703;-89
2022/07/15 11:53:43;;;;;;;4.30;2.97;;;26.30;58.10;;;;;;4967177;28;20732;-89
2022/07/15 11:56:11;;;;;;;4.00;3.20;;;26.30;63.00;;;;;;5016902;28;20280;-90
2022/07/15 11:58:38;;;;;;;3.43;3.23;;;27.30;56.60;;;;;;4984460;28;20427;-90
2022/07/15 12:01:12;;;;;;;3.87;3.50;;;27.70;55.30;;;;;;4979645;28;20562;-87
2022/07/15 12:03:43;;;;;;;4.03;3.63;;;28.00;58.80;;;;;;4987171;28;20494;-89
2022/07/15 12:06:21;;;;;;;3.90;3.60;;;27.90;60.80;;;;;;4986476;28;20436;-89
2022/07/15 12:08:56;;;;;;;3.77;3.47;;;28.10;60.50;;;;;;4982591;28;21892;-90
2022/07/15 12:11:30;;;;;;;3.90;3.30;;;28.10;61.30;;;;;;4984538;28;20455;-92
2022/07/15 12:14:24;;;;;;;3.47;3.17;;;27.80;55.50;;;;;;4987865;28;20443;-90
2022/07/15 12:16:52;;;;;;;3.53;3.23;;;27.60;58.30;;;;;;4975211;28;20784;-90
2022/07/15 12:19:33;;;;;;;4.00;3.60;;;27.20;57.40;;;;;;4977462;28;20694;-91
2022/07/15 12:22:06;;;;;;;3.07;2.73;;;27.10;56.00;;;;;;4981534;28;20486;-88
2022/07/15 12:24:43;;;;;;;5.17;3.23;;;27.60;58.30;;;;;;4976061;28;20598;-88
2022/07/15 12:27:10;;;;;;;3.87;3.30;;;28.10;56.80;;;;;;4975137;28;20609;-88
2022/07/15 12:29:35;;;;;;;3.30;3.00;;;27.60;55.20;;;;;;4975090;28;20451;-88
2022/07/15 12:32:06;;;;;;;4.63;3.83;;;28.10;56.80;;;;;;4973347;28;20444;-88
2022/07/15 12:35:04;;;;;;;3.27;2.93;;;27.40;55.50;;;;;;4980950;28;20214;-88
2022/07/15 12:37:32;;;;;;;5.10;3.20;;;27.60;56.90;;;;;;4953414;28;21318;-89
2022/07/15 12:40:07;;;;;;;3.70;2.97;;;28.50;56.80;;;;;;5009731;28;20591;-90
2022/07/15 12:42:48;;;;;;;3.47;3.10;;;29.00;56.70;;;;;;4990055;28;20845;-89
2022/07/15 12:45:22;;;;;;;3.97;3.00;;;28.70;54.40;;;;;;4980145;28;20436;-88
2022/07/15 12:48:05;;;;;;;4.10;3.20;;;28.30;55.00;;;;;;4969029;28;20443;-93
2022/07/15 12:50:55;;;;;;;3.70;3.40;;;28.10;55.80;;;;;;5011467;28;20527;-89
2022/07/15 12:53:22;;;;;;;3.90;3.00;;;27.80;55.20;;;;;;4972582;28;20546;-90
2022/07/15 12:55:50;;;;;;;4.77;3.37;;;28.10;58.00;;;;;;5000418;28;21093;-90
2022/07/15 12:58:27;;;;;;;4.80;3.53;;;28.80;56.50;;;;;;4977492;28;20438;-92
2022/07/15 13:01:08;;;;;;;4.10;3.70;;;29.10;53.20;;;;;;4979761;28;20448;-90
2022/07/15 13:03:35;;;;;;;3.37;3.07;;;29.40;56.90;;;;;;4987525;28;20443;-90
2022/07/15 13:06:01;;;;;;;3.33;3.00;;;29.40;51.20;;;;;;4999592;28;20848;-89
2022/07/15 13:08:30;;;;;;;3.20;3.00;;;29.70;52.80;;;;;;4977855;28;20456;-90
2022/07/15 13:10:58;;;;;;;3.87;3.20;;;28.90;53.70;;;;;;4966504;28;21242;-91
2022/07/15 13:13:27;;;;;;;4.10;3.53;;;28.30;53.20;;;;;;4977409;28;22263;-90
2022/07/15 13:15:53;;;;;;;3.70;3.20;;;28.20;54.90;;;;;;4995873;28;20455;-90
2022/07/15 13:18:20;;;;;;;3.83;3.50;;;27.90;55.50;;;;;;4991401;28;20539;-90
2022/07/15 13:20:47;;;;;;;3.60;3.30;;;28.00;55.10;;;;;;4982165;28;20848;-91
2022/07/15 13:23:13;;;;;;;3.50;3.30;;;28.00;54.90;;;;;;5012714;28;20451;-90
2022/07/15 13:25:41;;;;;;;3.00;2.80;;;27.70;56.00;;;;;;4983603;28;20446;-90
2022/07/15 13:28:07;;;;;;;4.73;3.63;;;27.20;54.40;;;;;;4982165;28;20546;-90
2022/07/15 13:30:34;;;;;;;4.60;3.47;;;26.50;56.10;;;;;;4982276;28;20448;-90
2022/07/15 13:32:59;;;;;;;3.67;3.37;;;26.40;56.90;;;;;;4991272;28;20440;-89
2022/07/15 13:35:28;;;;;;;4.53;3.20;;;26.90;57.20;;;;;;4991207;28;20784;-91
2022/07/15 13:37:54;;;;;;;3.90;3.10;;;27.90;56.80;;;;;;4997338;28;20198;-91
2022/07/15 13:40:19;;;;;;;3.60;2.90;;;29.00;56.50;;;;;;4986180;28;20775;-90
2022/07/15 13:42:46;;;;;;;4.20;3.27;;;29.50;54.90;;;;;;4986382;28;20311;-90
2022/07/15 13:45:12;;;;;;;3.33;3.00;;;29.80;55.20;;;;;;4999173;28;20196;-89
2022/07/15 13:47:38;;;;;;;3.93;3.33;;;30.40;54.90;;;;;;5002109;28;20451;-91
2022/07/15 13:52:51;;;;;;;3.43;3.13;;;30.20;56.00;;;;;;5009607;28;20442;-90
2022/07/15 13:55:19;;;;;;;6.70;2.80;;;30.60;53.60;;;;;;4980880;28;20911;-92
2022/07/15 13:57:45;;;;;;;3.20;3.00;;;30.30;53.00;;;;;;4981814;28;20530;-90
2022/07/15 14:00:17;;;;;;;3.70;3.27;;;30.80;53.70;;;;;;4991904;28;20538;-90
2022/07/15 14:02:44;;;;;;;3.83;3.53;;;30.10;51.70;;;;;;4988544;28;20895;-89
2022/07/15 14:05:11;;;;;;;3.87;3.23;;;29.10;53.00;;;;;;5020530;28;20462;-89
2022/07/15 14:07:37;;;;;;;3.50;3.20;;;28.30;54.00;;;;;;4995230;28;20451;-90
2022/07/15 14:10:04;;;;;;;3.60;3.30;;;27.90;54.50;;;;;;4990962;28;20420;-90
2022/07/15 14:12:29;;;;;;;5.10;3.43;;;28.60;52.30;;;;;;4994327;28;20189;-90
2022/07/15 14:15:02;;;;;;;3.60;3.30;;;28.00;53.60;;;;;;4992930;28;20559;-90